createdAt,value
2022-09-04T00:02:34.629Z,27.15
2022-09-04T00:05:07.444Z,27.95
2022-09-04T00:07:57.338Z,28.98
2022-09-04T00:10:37.271Z,23.20
2022-09-04T00:13:41.987Z,30.00
2022-09-04T00:16:21.479Z,32.10
2022-09-04T00:19:03.390Z,29.80
2022-09-04T00:21:50.430Z,32.45
2022-09-04T00:24:25.175Z,31.83
2022-09-04T00:27:01.611Z,26.85
2022-09-04T00:29:44.424Z,22.52
2022-09-04T00:32:30.201Z,26.73
2022-09-04T00:35:07.491Z,29.02
2022-09-04T00:37:43.772Z,25.13
2022-09-04T00:40:19.602Z,24.98
2022-09-04T00:43:08.635Z,21.88
2022-09-04T00:46:14.522Z,22.50
2022-09-04T00:49:03.927Z,25.30
2022-09-04T00:51:53.313Z,27.17
2022-09-04T00:54:41.595Z,21.50
2022-09-04T00:57:47.199Z,30.17
2022-09-04T01:00:20.526Z,24.83
2022-09-04T01:03:07.487Z,28.30
2022-09-04T01:05:55.969Z,26.65
2022-09-04T01:08:50.334Z,26.48
2022-09-04T01:11:29.608Z,22.52
2022-09-04T01:14:10.899Z,23.85
2022-09-04T01:16:42.079Z,23.08
2022-09-04T01:19:37.998Z,24.77
2022-09-04T01:22:26.762Z,20.63
2022-09-04T01:25:05.724Z,23.27
2022-09-04T01:28:07.148Z,25.42
2022-09-04T01:30:59.614Z,22.63
2022-09-04T01:33:36.173Z,20.67
2022-09-04T01:36:38.540Z,21.13
2022-09-04T01:39:06.283Z,18.13
2022-09-04T01:41:45.671Z,21.70
2022-09-04T01:44:14.207Z,21.85
2022-09-04T01:47:03.206Z,23.60
2022-09-04T01:49:39.322Z,27.02
2022-09-04T01:52:36.677Z,25.00
2022-09-04T01:55:38.987Z,25.20
2022-09-04T01:58:19.068Z,22.52
2022-09-04T02:01:14.139Z,21.35
2022-09-04T02:04:12.588Z,25.02
2022-09-04T02:07:33.843Z,25.30
2022-09-04T02:10:29.391Z,26.92
2022-09-04T02:13:29.438Z,21.75
2022-09-04T02:16:20.595Z,22.80
2022-09-04T02:19:03.076Z,21.98
2022-09-04T02:21:44.706Z,23.10
2022-09-04T02:24:41.409Z,25.77
2022-09-04T02:27:26.607Z,23.48
2022-09-04T02:30:01.502Z,23.77
2022-09-04T02:32:45.430Z,19.92
2022-09-04T02:35:13.034Z,28.67
2022-09-04T02:37:49.534Z,19.23
2022-09-04T02:40:29.069Z,20.85
2022-09-04T02:43:16.102Z,24.08
2022-09-04T02:46:05.713Z,23.20
2022-09-04T02:48:41.788Z,18.90
2022-09-04T02:51:45.666Z,20.05
2022-09-04T02:54:22.151Z,20.20
2022-09-04T02:57:17.633Z,24.02
2022-09-04T03:00:15.078Z,18.48
2022-09-04T03:02:55.267Z,20.38
2022-09-04T03:05:54.642Z,20.70
2022-09-04T03:08:42.846Z,22.23
2022-09-04T03:11:31.067Z,23.00
2022-09-04T03:14:28.591Z,20.08
2022-09-04T03:17:21.258Z,21.42
2022-09-04T03:20:00.299Z,20.50
2022-09-04T03:22:39.677Z,21.38
2022-09-04T03:25:30.844Z,23.27
2022-09-04T03:27:58.749Z,17.85
2022-09-04T03:30:27.608Z,19.58
2022-09-04T03:33:07.568Z,21.23
2022-09-04T03:36:00.532Z,21.20
2022-09-04T03:38:47.693Z,19.95
2022-09-04T03:41:24.201Z,19.83
2022-09-04T03:43:54.829Z,20.52
2022-09-04T03:47:16.582Z,25.30
2022-09-04T03:49:52.803Z,26.30
2022-09-04T03:52:38.930Z,22.95
2022-09-04T03:55:12.313Z,19.60
2022-09-04T03:58:01.158Z,22.23
2022-09-04T04:00:50.790Z,20.48
2022-09-04T04:03:36.796Z,22.67
2022-09-04T04:06:27.150Z,20.33
2022-09-04T04:09:22.540Z,27.67
2022-09-04T04:12:14.420Z,22.13
2022-09-04T04:14:59.381Z,19.25
2022-09-04T04:17:50.357Z,17.90
2022-09-04T04:21:00.049Z,20.38
2022-09-04T04:23:57.600Z,21.85
2022-09-04T04:26:54.919Z,20.95
2022-09-04T04:29:51.863Z,20.77
2022-09-04T04:32:59.416Z,22.13
2022-09-04T04:35:37.607Z,20.95
2022-09-04T04:38:32.751Z,20.73
2022-09-04T04:41:30.177Z,20.80
2022-09-04T04:44:43.734Z,18.33
2022-09-04T04:47:42.161Z,20.42
2022-09-04T04:50:28.947Z,21.25
2022-09-04T04:53:45.881Z,19.48
2022-09-04T04:56:51.135Z,20.25
2022-09-04T04:59:40.094Z,21.83
2022-09-04T05:02:35.627Z,21.30
2022-09-04T05:05:17.600Z,18.30
2022-09-04T05:08:08.574Z,21.15
2022-09-04T05:10:43.566Z,20.38
2022-09-04T05:13:23.250Z,16.45
2022-09-04T05:16:21.817Z,15.93
2022-09-04T05:19:18.349Z,17.00
2022-09-04T05:22:16.546Z,16.63
2022-09-04T05:25:13.575Z,19.00
2022-09-04T05:27:53.504Z,18.98
2022-09-04T05:30:51.007Z,20.13
2022-09-04T05:33:51.092Z,16.20
2022-09-04T05:36:29.703Z,18.27
2022-09-04T05:39:10.716Z,17.10
2022-09-04T05:42:06.375Z,17.38
2022-09-04T05:45:04.232Z,16.85
2022-09-04T05:47:52.304Z,17.05
2022-09-04T05:50:26.381Z,17.23
2022-09-04T05:53:18.873Z,18.10
2022-09-04T05:55:58.882Z,21.52
2022-09-04T05:59:09.574Z,16.88
2022-09-04T06:02:06.169Z,16.70
2022-09-04T06:05:10.522Z,21.15
2022-09-04T06:08:28.340Z,15.13
2022-09-04T06:11:24.258Z,18.00
2022-09-04T06:14:19.962Z,14.98
2022-09-04T06:16:53.230Z,21.38
2022-09-04T06:19:23.481Z,15.77
2022-09-04T06:22:03.365Z,14.90
2022-09-04T06:24:56.940Z,17.42
2022-09-04T06:27:35.453Z,16.07
2022-09-04T06:30:09.027Z,14.60
2022-09-04T06:32:55.317Z,16.75
2022-09-04T06:35:54.093Z,14.38
2022-09-04T06:38:45.423Z,15.05
2022-09-04T06:41:40.501Z,13.77
2022-09-04T06:44:29.511Z,13.70
2022-09-04T06:47:20.491Z,13.93
2022-09-04T06:50:14.652Z,12.95
2022-09-04T06:53:18.995Z,13.10
2022-09-04T06:56:05.746Z,15.48
2022-09-04T06:59:08.956Z,13.60
2022-09-04T07:02:13.715Z,12.85
2022-09-04T07:05:16.435Z,16.75
2022-09-04T07:08:02.591Z,13.85
2022-09-04T07:10:45.874Z,13.88
2022-09-04T07:13:37.757Z,12.57
2022-09-04T07:16:31.179Z,17.00
2022-09-04T07:19:32.927Z,13.73
2022-09-04T07:22:22.098Z,10.77
2022-09-04T07:25:23.324Z,12.32
2022-09-04T07:28:06.413Z,10.43
2022-09-04T07:30:45.553Z,11.10
2022-09-04T07:33:46.038Z,12.38
2022-09-04T07:36:43.586Z,10.57
2022-09-04T07:39:20.511Z,7.95
2022-09-04T07:42:19.010Z,7.95
2022-09-04T07:45:22.618Z,8.63
2022-09-04T07:48:04.016Z,9.32
2022-09-04T07:50:58.166Z,6.22
2022-09-04T07:53:40.330Z,7.40
2022-09-04T07:56:35.531Z,7.03
2022-09-04T07:59:40.537Z,4.80
2022-09-04T08:02:26.575Z,5.95
2022-09-04T08:04:58.703Z,6.68
2022-09-04T08:08:15.825Z,6.25
2022-09-04T08:10:59.361Z,4.60
2022-09-04T08:13:51.893Z,4.68
2022-09-04T08:16:31.263Z,5.60
2022-09-04T08:19:10.522Z,6.28
2022-09-04T08:21:47.103Z,5.93
2022-09-04T08:24:52.911Z,5.10
2022-09-04T08:28:00.097Z,5.47
2022-09-04T08:30:39.210Z,5.38
2022-09-04T08:33:40.847Z,5.85
2022-09-04T08:36:37.544Z,4.28
2022-09-04T08:39:23.559Z,6.80
2022-09-04T08:42:23.471Z,6.03
2022-09-04T08:45:22.258Z,6.72
2022-09-04T08:48:11.356Z,4.15
2022-09-04T08:51:34.306Z,7.68
2022-09-04T08:54:16.857Z,7.57
2022-09-04T08:56:53.804Z,6.65
2022-09-04T08:59:42.526Z,5.47
2022-09-04T09:02:37.937Z,5.70
2022-09-04T09:05:25.857Z,6.18
2022-09-04T09:08:24.997Z,7.90
2022-09-04T09:11:13.605Z,5.18
2022-09-04T09:14:19.323Z,4.95
2022-09-04T09:17:12.573Z,6.30
2022-09-04T09:19:43.447Z,8.13
2022-09-04T09:22:36.335Z,6.93
2022-09-04T09:25:21.143Z,6.35
2022-09-04T09:28:21.210Z,4.68
2022-09-04T09:30:58.950Z,5.57
2022-09-04T09:33:32.517Z,10.90
2022-09-04T09:36:06.564Z,6.68
2022-09-04T09:38:53.197Z,5.75
2022-09-04T09:41:51.761Z,5.78
2022-09-04T09:44:46.877Z,5.50
2022-09-04T09:47:42.122Z,6.13
2022-09-04T09:50:12.607Z,9.57
2022-09-04T09:53:17.070Z,5.22
2022-09-04T09:55:50.844Z,6.30
2022-09-04T09:58:48.669Z,8.68
2022-09-04T10:01:25.204Z,9.35
2022-09-04T10:04:22.068Z,11.45
2022-09-04T10:07:21.274Z,7.30
2022-09-04T10:10:12.622Z,8.60
2022-09-04T10:12:55.339Z,8.20
2022-09-04T10:16:01.241Z,11.73
2022-09-04T10:19:20.120Z,9.15
2022-09-04T10:21:51.469Z,7.43
2022-09-04T10:24:38.693Z,11.20
2022-09-04T10:27:09.550Z,8.63
2022-09-04T10:29:53.924Z,8.52
2022-09-04T10:32:31.846Z,6.13
2022-09-04T10:35:22.335Z,6.63
2022-09-04T10:38:19.140Z,9.07
2022-09-04T10:41:22.766Z,8.27
2022-09-04T10:44:08.773Z,6.72
2022-09-04T10:47:02.711Z,7.88
2022-09-04T10:49:55.407Z,8.82
2022-09-04T10:52:48.564Z,9.20
2022-09-04T10:55:59.063Z,10.68
2022-09-04T10:58:40.897Z,9.68
2022-09-04T11:01:27.854Z,9.88
2022-09-04T11:04:14.004Z,8.32
2022-09-04T11:07:01.253Z,13.65
2022-09-04T11:09:56.446Z,8.85
2022-09-04T11:12:45.897Z,10.18
2022-09-04T11:15:52.673Z,11.10
2022-09-04T11:18:34.180Z,9.77
2022-09-04T11:21:07.984Z,7.55
2022-09-04T11:24:17.316Z,10.48
2022-09-04T11:27:07.969Z,9.77
2022-09-04T11:29:56.708Z,8.30
2022-09-04T11:33:11.944Z,8.48
2022-09-04T11:36:07.253Z,8.90
2022-09-04T11:38:53.724Z,9.05
2022-09-04T11:42:20.457Z,11.57
2022-09-04T11:45:21.301Z,9.63
2022-09-04T11:48:15.920Z,8.27
2022-09-04T11:51:02.806Z,7.28
2022-09-04T11:54:21.022Z,8.70
2022-09-04T11:57:22.672Z,8.43
2022-09-04T11:59:59.508Z,10.00
2022-09-04T12:03:04.137Z,8.00
2022-09-04T12:06:05.122Z,10.60
2022-09-04T12:08:57.059Z,9.57
2022-09-04T12:11:48.860Z,8.50
2022-09-04T12:14:36.729Z,6.57
2022-09-04T12:17:31.981Z,7.22
2022-09-04T12:20:31.036Z,7.78
2022-09-04T12:23:19.047Z,7.97
2022-09-04T12:25:57.692Z,9.18
2022-09-04T12:28:57.680Z,6.70
2022-09-04T12:31:51.407Z,7.80
2022-09-04T12:34:55.159Z,7.18
2022-09-04T12:37:54.115Z,7.35
2022-09-04T12:40:23.024Z,7.15
2022-09-04T12:43:16.640Z,7.93
2022-09-04T12:46:14.449Z,6.63
2022-09-04T12:48:53.902Z,8.20
2022-09-04T12:51:26.581Z,6.38
2022-09-04T12:54:25.005Z,6.78
2022-09-04T12:57:11.711Z,10.63
2022-09-04T13:00:04.812Z,7.90
2022-09-04T13:02:57.437Z,5.90
2022-09-04T13:05:31.948Z,8.63
2022-09-04T13:08:06.893Z,6.85
2022-09-04T13:10:52.543Z,6.50
2022-09-04T13:13:48.001Z,6.13
2022-09-04T13:16:36.937Z,5.28
2022-09-04T13:19:22.833Z,5.15
2022-09-04T13:22:09.217Z,5.75
2022-09-04T13:25:25.658Z,5.85
2022-09-04T13:27:57.525Z,6.30
2022-09-04T13:30:27.618Z,6.38
2022-09-04T13:33:26.260Z,5.57
2022-09-04T13:36:11.233Z,5.50
2022-09-04T13:38:45.282Z,6.90
2022-09-04T13:44:08.009Z,7.45
2022-09-04T13:46:46.779Z,4.20
2022-09-04T13:49:21.350Z,5.90
2022-09-04T13:52:00.438Z,8.45
2022-09-04T13:54:42.554Z,7.25
2022-09-04T13:57:27.996Z,4.68
2022-09-04T14:00:07.340Z,6.78
2022-09-04T14:02:36.998Z,6.72
2022-09-04T14:05:16.681Z,6.68
2022-09-04T14:07:49.305Z,7.85
2022-09-04T14:10:41.351Z,6.20
2022-09-04T14:13:55.598Z,8.40
2022-09-04T14:16:24.055Z,6.30
2022-09-04T14:19:20.675Z,10.40
2022-09-04T14:21:55.359Z,7.85
2022-09-04T14:24:42.092Z,8.32
2022-09-04T14:27:16.002Z,7.43
2022-09-04T14:30:13.604Z,9.13
2022-09-04T14:33:06.246Z,6.60
2022-09-04T14:35:49.341Z,11.90
2022-09-04T14:38:41.317Z,8.93
2022-09-04T14:41:30.450Z,9.35
2022-09-04T14:44:16.603Z,7.60
2022-09-04T14:47:17.253Z,8.57
2022-09-04T14:49:48.506Z,9.18
2022-09-04T14:52:21.710Z,8.10
2022-09-04T14:54:55.691Z,7.35
2022-09-04T15:00:20.203Z,6.90
2022-09-04T15:02:51.203Z,7.28
2022-09-04T15:05:27.709Z,12.68
2022-09-04T15:08:03.818Z,6.80
2022-09-04T15:10:50.025Z,7.22
2022-09-04T15:13:35.358Z,7.13
2022-09-04T15:16:19.431Z,5.50
2022-09-04T15:19:05.905Z,7.43
2022-09-04T15:21:58.932Z,6.80
2022-09-04T15:24:32.594Z,7.68
2022-09-04T15:27:23.680Z,7.20
2022-09-04T15:29:54.424Z,5.05
2022-09-04T15:32:28.548Z,11.25
2022-09-04T15:35:14.301Z,9.60
2022-09-04T15:37:48.732Z,8.57
2022-09-04T15:40:31.974Z,11.07
2022-09-04T15:43:12.261Z,7.25
2022-09-04T15:45:54.083Z,7.90
2022-09-04T15:48:26.977Z,13.13
2022-09-04T15:51:04.466Z,9.63
2022-09-04T15:53:38.838Z,10.00
2022-09-04T15:56:34.951Z,6.63
2022-09-04T15:59:08.932Z,9.00
2022-09-04T16:04:18.355Z,16.40
2022-09-04T16:07:28.874Z,7.15
2022-09-04T16:10:02.936Z,11.23
2022-09-04T16:12:48.660Z,8.77
2022-09-04T16:15:44.925Z,5.88
2022-09-04T16:18:40.264Z,8.02
2022-09-04T16:21:41.050Z,6.53
2022-09-04T16:24:25.731Z,10.77
2022-09-04T16:26:55.840Z,10.40
2022-09-04T16:29:36.755Z,9.10
2022-09-04T16:32:09.767Z,10.80
2022-09-04T16:34:55.980Z,10.20
2022-09-04T16:37:32.617Z,7.10
2022-09-04T16:40:48.740Z,9.90
2022-09-04T16:43:28.849Z,11.80
2022-09-04T16:46:28.150Z,6.85
2022-09-04T16:49:07.786Z,10.35
2022-09-04T16:51:43.624Z,9.55
2022-09-04T16:54:37.310Z,9.25
2022-09-04T16:57:15.835Z,11.80
2022-09-04T16:59:57.245Z,13.23
2022-09-04T17:02:36.132Z,8.60
2022-09-04T17:05:28.390Z,10.57
2022-09-04T17:08:12.189Z,9.80
2022-09-04T17:11:05.529Z,10.00
2022-09-04T17:13:50.096Z,12.27
2022-09-04T17:19:14.212Z,12.00
2022-09-04T17:28:55.846Z,7.28
2022-09-04T17:28:57.199Z,9.63
2022-09-04T17:29:09.738Z,9.85
2022-09-04T17:31:43.940Z,11.18
2022-09-04T17:40:32.144Z,8.85
2022-09-04T17:40:49.125Z,8.88
2022-09-04T17:41:40.705Z,6.68
2022-09-04T17:44:05.885Z,5.47
2022-09-04T17:46:44.811Z,8.75
2022-09-04T17:49:34.368Z,4.10
2022-09-04T17:52:08.922Z,7.05
2022-09-04T17:57:28.581Z,6.40
2022-09-04T18:00:07.810Z,8.38
2022-09-04T18:02:56.278Z,9.30
2022-09-04T18:05:49.162Z,5.63
2022-09-04T18:08:55.937Z,10.10
2022-09-04T18:11:28.952Z,9.82
2022-09-04T18:14:04.225Z,6.47
2022-09-04T18:16:47.665Z,6.68
2022-09-04T18:19:46.898Z,5.93
2022-09-04T18:22:44.875Z,6.22
2022-09-04T18:25:24.803Z,15.98
2022-09-04T18:28:17.893Z,8.73
2022-09-04T18:37:12.507Z,7.82
2022-09-04T18:37:18.588Z,6.63
2022-09-04T18:37:44.186Z,11.00
2022-09-04T18:40:50.414Z,19.02
2022-09-04T18:50:23.675Z,15.07
2022-09-04T18:50:40.776Z,14.02
2022-09-04T18:50:51.228Z,9.43
2022-09-04T18:52:23.198Z,10.20
2022-09-04T18:54:58.938Z,6.80
2022-09-04T18:57:49.005Z,9.18
2022-09-04T19:00:39.907Z,12.02
2022-09-04T19:03:23.036Z,7.15
2022-09-04T19:05:56.747Z,6.75
2022-09-04T19:08:34.074Z,8.52
2022-09-04T19:11:29.403Z,6.57
2022-09-04T19:14:15.598Z,11.32
2022-09-04T19:16:52.569Z,6.75
2022-09-04T19:19:45.578Z,6.55
2022-09-04T19:22:36.155Z,11.73
2022-09-04T19:25:13.436Z,6.70
2022-09-04T19:28:21.888Z,6.00
2022-09-04T19:30:53.749Z,10.57
2022-09-04T19:33:31.629Z,9.30
2022-09-04T19:36:14.071Z,7.93
2022-09-04T19:44:44.504Z,9.65
2022-09-04T19:46:03.556Z,5.88
2022-09-04T19:46:26.495Z,6.72
2022-09-04T19:48:11.606Z,7.75
2022-09-04T19:53:24.398Z,6.65
2022-09-04T19:53:49.260Z,7.30
2022-09-04T19:56:28.592Z,5.85
2022-09-04T19:59:11.608Z,6.88
2022-09-04T20:01:52.012Z,10.20
2022-09-04T20:04:47.512Z,5.30
2022-09-04T20:07:42.694Z,7.47
2022-09-04T20:10:22.896Z,7.63
2022-09-04T20:13:11.963Z,6.30
2022-09-04T20:15:50.942Z,8.15
2022-09-04T20:18:28.239Z,6.22
2022-09-04T20:21:01.258Z,5.35
2022-09-04T20:23:42.615Z,6.15
2022-09-04T20:26:25.552Z,10.13
2022-09-04T20:29:10.827Z,6.20
2022-09-04T20:32:27.439Z,6.53
2022-09-04T20:35:20.500Z,4.95
2022-09-04T20:38:22.987Z,5.22
2022-09-04T20:41:22.478Z,4.53
2022-09-04T20:44:19.638Z,9.15
2022-09-04T20:52:45.880Z,5.30
2022-09-04T20:52:57.622Z,4.65
2022-09-04T20:53:07.449Z,7.20
2022-09-04T20:56:10.752Z,4.55
2022-09-04T21:03:07.522Z,5.10
2022-09-04T21:03:18.412Z,4.70
2022-09-04T21:05:42.512Z,6.68
2022-09-04T21:08:27.255Z,6.32
2022-09-04T21:11:14.878Z,3.08
2022-09-04T21:14:06.848Z,3.85
2022-09-04T21:16:49.773Z,6.40
2022-09-04T21:19:47.699Z,5.40
2022-09-04T21:22:37.015Z,4.63
2022-09-04T21:25:04.877Z,3.17
2022-09-04T21:27:32.483Z,6.45
2022-09-04T21:30:14.760Z,2.92
2022-09-04T21:32:53.885Z,3.38
2022-09-04T21:35:37.388Z,6.40
2022-09-04T21:38:31.068Z,3.08
2022-09-04T21:41:16.551Z,3.38
2022-09-04T21:43:53.169Z,2.40
2022-09-04T21:46:33.010Z,6.25
2022-09-04T21:49:26.783Z,4.43
2022-09-04T21:52:32.001Z,4.47
2022-09-04T21:57:13.513Z,3.92
2022-09-04T22:02:36.512Z,4.78
2022-09-04T22:02:43.808Z,5.55
2022-09-04T22:04:38.474Z,2.63
2022-09-04T22:11:00.944Z,4.15
2022-09-04T22:13:31.462Z,3.67
2022-09-04T22:13:42.494Z,4.60
2022-09-04T22:16:13.506Z,5.88
2022-09-04T22:19:16.463Z,3.42
2022-09-04T22:22:03.707Z,4.25
2022-09-04T22:24:41.566Z,3.95
2022-09-04T22:27:30.570Z,2.33
2022-09-04T22:30:06.044Z,2.47
2022-09-04T22:33:10.741Z,3.72
2022-09-04T22:36:16.875Z,2.53
2022-09-04T22:39:30.959Z,5.30
2022-09-04T22:42:05.535Z,2.33
2022-09-04T22:44:35.997Z,2.90
2022-09-04T22:47:27.347Z,2.28
2022-09-04T22:50:29.040Z,1.92
2022-09-04T22:53:41.418Z,3.38
2022-09-04T22:56:30.383Z,3.53
2022-09-04T22:59:35.766Z,2.63
2022-09-04T23:05:06.778Z,2.97
2022-09-04T23:13:54.483Z,5.40
2022-09-04T23:14:00.193Z,1.52
2022-09-04T23:15:08.077Z,1.90
2022-09-04T23:20:22.456Z,1.50
2022-09-04T23:26:35.344Z,2.05
2022-09-04T23:26:49.395Z,6.28
2022-09-04T23:27:40.081Z,2.00
2022-09-04T23:30:25.815Z,1.98
2022-09-04T23:33:27.846Z,1.50
2022-09-04T23:37:07.207Z,1.73
2022-09-04T23:40:31.905Z,1.55
2022-09-04T23:43:29.632Z,8.88
2022-09-04T23:46:35.951Z,3.58
2022-09-04T23:49:49.558Z,1.30
2022-09-04T23:52:48.497Z,1.85
2022-09-04T23:55:49.911Z,2.78
2022-09-04T23:59:14.254Z,1.95
